sensor_id;sensor_type;location;lat;lon;timestamp;P1;durP1;ratioP1;P2;durP2;ratioP2
16282;SDS011;8249;48.708;9.030;2023-06-22T00:00:53;386.48;;;368.80;;
16282;SDS011;8249;48.708;9.030;2023-06-22T00:03:20;396.13;;;377.88;;
16282;SDS011;8249;48.708;9.030;2023-06-22T00:05:49;376.15;;;358.92;;
16282;SDS011;8249;48.708;9.030;2023-06-22T00:08:16;391.05;;;373.13;;
16282;SDS011;8249;48.708;9.030;2023-06-22T00:10:43;382.45;;;364.95;;
16282;SDS011;8249;48.708;9.030;2023-06-22T00:13:11;357.45;;;341.35;;
16282;SDS011;8249;48.708;9.030;2023-06-22T00:15:39;364.60;;;347.98;;
16282;SDS011;8249;48.708;9.030;2023-06-22T00:18:08;345.20;;;329.65;;
16282;SDS011;8249;48.708;9.030;2023-06-22T00:20:38;340.30;;;324.88;;
16282;SDS011;8249;48.708;9.030;2023-06-22T00:23:05;356.88;;;340.60;;
16282;SDS011;8249;48.708;9.030;2023-06-22T00:25:34;340.60;;;325.20;;
16282;SDS011;8249;48.708;9.030;2023-06-22T00:28:01;336.35;;;321.20;;
16282;SDS011;8249;48.708;9.030;2023-06-22T00:30:29;347.77;;;331.85;;
16282;SDS011;8249;48.708;9.030;2023-06-22T00:32:57;324.20;;;309.20;;
16282;SDS011;8249;48.708;9.030;2023-06-22T00:35:26;295.60;;;282.20;;
16282;SDS011;8249;48.708;9.030;2023-06-22T00:37:54;254.80;;;243.55;;
16282;SDS011;8249;48.708;9.030;2023-06-22T00:40:25;250.98;;;239.52;;
16282;SDS011;8249;48.708;9.030;2023-06-22T00:42:53;260.42;;;248.82;;
16282;SDS011;8249;48.708;9.030;2023-06-22T00:45:20;248.95;;;237.82;;
16282;SDS011;8249;48.708;9.030;2023-06-22T00:47:49;264.00;;;252.10;;
16282;SDS011;8249;48.708;9.030;2023-06-22T00:50:18;239.88;;;229.20;;
16282;SDS011;8249;48.708;9.030;2023-06-22T00:52:50;265.92;;;254.07;;
16282;SDS011;8249;48.708;9.030;2023-06-22T00:55:18;232.88;;;222.40;;
16282;SDS011;8249;48.708;9.030;2023-06-22T00:57:46;272.08;;;259.92;;
16282;SDS011;8249;48.708;9.030;2023-06-22T01:00:14;247.75;;;236.70;;
16282;SDS011;8249;48.708;9.030;2023-06-22T01:02:43;274.42;;;262.25;;
16282;SDS011;8249;48.708;9.030;2023-06-22T01:05:12;274.15;;;261.90;;
16282;SDS011;8249;48.708;9.030;2023-06-22T01:07:40;257.08;;;245.70;;
16282;SDS011;8249;48.708;9.030;2023-06-22T01:10:16;255.50;;;244.18;;
16282;SDS011;8249;48.708;9.030;2023-06-22T01:12:48;251.27;;;240.00;;
16282;SDS011;8249;48.708;9.030;2023-06-22T01:15:28;261.92;;;250.50;;
16282;SDS011;8249;48.708;9.030;2023-06-22T01:17:57;287.10;;;274.00;;
16282;SDS011;8249;48.708;9.030;2023-06-22T01:20:25;258.83;;;247.15;;
16282;SDS011;8249;48.708;9.030;2023-06-22T01:22:57;263.93;;;252.10;;
16282;SDS011;8249;48.708;9.030;2023-06-22T01:25:41;259.90;;;248.35;;
16282;SDS011;8249;48.708;9.030;2023-06-22T01:28:18;251.27;;;240.10;;
16282;SDS011;8249;48.708;9.030;2023-06-22T01:30:53;265.90;;;254.10;;
16282;SDS011;8249;48.708;9.030;2023-06-22T01:33:29;264.88;;;251.85;;
16282;SDS011;8249;48.708;9.030;2023-06-22T01:35:58;241.55;;;230.75;;
16282;SDS011;8249;48.708;9.030;2023-06-22T01:38:25;287.15;;;274.20;;
16282;SDS011;8249;48.708;9.030;2023-06-22T01:40:54;276.23;;;263.97;;
16282;SDS011;8249;48.708;9.030;2023-06-22T01:43:23;267.55;;;255.85;;
16282;SDS011;8249;48.708;9.030;2023-06-22T01:45:51;273.23;;;261.08;;
16282;SDS011;8249;48.708;9.030;2023-06-22T01:48:20;285.70;;;272.38;;
16282;SDS011;8249;48.708;9.030;2023-06-22T01:50:48;287.60;;;274.92;;
16282;SDS011;8249;48.708;9.030;2023-06-22T01:53:16;290.65;;;277.45;;
16282;SDS011;8249;48.708;9.030;2023-06-22T01:55:44;306.97;;;293.17;;
16282;SDS011;8249;48.708;9.030;2023-06-22T01:58:11;299.58;;;285.80;;
16282;SDS011;8249;48.708;9.030;2023-06-22T02:00:40;286.85;;;273.92;;
16282;SDS011;8249;48.708;9.030;2023-06-22T02:03:13;294.98;;;281.70;;
16282;SDS011;8249;48.708;9.030;2023-06-22T02:05:46;301.13;;;287.33;;
16282;SDS011;8249;48.708;9.030;2023-06-22T02:08:15;334.87;;;319.50;;
16282;SDS011;8249;48.708;9.030;2023-06-22T02:10:46;307.20;;;293.47;;
16282;SDS011;8249;48.708;9.030;2023-06-22T02:13:15;312.55;;;297.70;;
16282;SDS011;8249;48.708;9.030;2023-06-22T02:15:43;326.50;;;311.87;;
16282;SDS011;8249;48.708;9.030;2023-06-22T02:18:12;350.93;;;335.47;;
16282;SDS011;8249;48.708;9.030;2023-06-22T02:20:40;314.27;;;300.13;;
16282;SDS011;8249;48.708;9.030;2023-06-22T02:23:07;380.53;;;363.40;;
16282;SDS011;8249;48.708;9.030;2023-06-22T02:25:34;375.83;;;358.90;;
16282;SDS011;8249;48.708;9.030;2023-06-22T02:28:01;427.87;;;398.03;;
16282;SDS011;8249;48.708;9.030;2023-06-22T02:30:29;890.38;;;792.90;;
16282;SDS011;8249;48.708;9.030;2023-06-22T02:32:56;938.33;;;867.55;;
16282;SDS011;8249;48.708;9.030;2023-06-22T02:35:26;893.93;;;830.97;;
16282;SDS011;8249;48.708;9.030;2023-06-22T02:37:56;869.35;;;809.40;;
16282;SDS011;8249;48.708;9.030;2023-06-22T02:40:24;860.60;;;802.97;;
16282;SDS011;8249;48.708;9.030;2023-06-22T02:42:52;878.67;;;819.37;;
16282;SDS011;8249;48.708;9.030;2023-06-22T02:45:19;866.33;;;807.13;;
16282;SDS011;8249;48.708;9.030;2023-06-22T02:47:46;885.67;;;825.27;;
16282;SDS011;8249;48.708;9.030;2023-06-22T02:50:14;855.50;;;797.40;;
16282;SDS011;8249;48.708;9.030;2023-06-22T02:52:42;821.70;;;766.95;;
16282;SDS011;8249;48.708;9.030;2023-06-22T02:55:10;827.37;;;772.90;;
16282;SDS011;8249;48.708;9.030;2023-06-22T02:57:37;829.10;;;774.23;;
16282;SDS011;8249;48.708;9.030;2023-06-22T03:00:10;832.03;;;777.60;;
16282;SDS011;8249;48.708;9.030;2023-06-22T03:02:43;863.70;;;805.93;;
16282;SDS011;8249;48.708;9.030;2023-06-22T03:05:10;833.23;;;778.20;;
16282;SDS011;8249;48.708;9.030;2023-06-22T03:07:39;830.47;;;776.80;;
16282;SDS011;8249;48.708;9.030;2023-06-22T03:10:09;805.37;;;753.90;;
16282;SDS011;8249;48.708;9.030;2023-06-22T03:12:37;844.00;;;787.70;;
16282;SDS011;8249;48.708;9.030;2023-06-22T03:15:05;839.80;;;783.70;;
16282;SDS011;8249;48.708;9.030;2023-06-22T03:17:33;845.90;;;790.07;;
16282;SDS011;8249;48.708;9.030;2023-06-22T03:20:01;823.07;;;768.13;;
16282;SDS011;8249;48.708;9.030;2023-06-22T03:22:34;813.00;;;759.57;;
16282;SDS011;8249;48.708;9.030;2023-06-22T03:25:01;832.00;;;776.57;;
16282;SDS011;8249;48.708;9.030;2023-06-22T03:27:29;824.20;;;770.92;;
16282;SDS011;8249;48.708;9.030;2023-06-22T03:29:56;825.33;;;771.40;;
16282;SDS011;8249;48.708;9.030;2023-06-22T03:32:23;830.17;;;776.03;;
16282;SDS011;8249;48.708;9.030;2023-06-22T03:34:53;880.80;;;820.20;;
16282;SDS011;8249;48.708;9.030;2023-06-22T03:37:24;888.27;;;827.67;;
16282;SDS011;8249;48.708;9.030;2023-06-22T03:39:51;858.50;;;800.13;;
16282;SDS011;8249;48.708;9.030;2023-06-22T03:42:19;853.40;;;794.97;;
16282;SDS011;8249;48.708;9.030;2023-06-22T03:44:47;862.13;;;804.53;;
16282;SDS011;8249;48.708;9.030;2023-06-22T03:47:14;841.00;;;786.80;;
16282;SDS011;8249;48.708;9.030;2023-06-22T03:49:41;883.40;;;823.00;;
16282;SDS011;8249;48.708;9.030;2023-06-22T03:52:08;879.87;;;819.73;;
16282;SDS011;8249;48.708;9.030;2023-06-22T03:54:36;887.73;;;826.70;;
16282;SDS011;8249;48.708;9.030;2023-06-22T03:57:03;885.93;;;825.10;;
16282;SDS011;8249;48.708;9.030;2023-06-22T03:59:30;909.07;;;843.90;;
16282;SDS011;8249;48.708;9.030;2023-06-22T04:01:59;903.77;;;838.97;;
16282;SDS011;8249;48.708;9.030;2023-06-22T04:04:26;916.47;;;849.50;;
16282;SDS011;8249;48.708;9.030;2023-06-22T04:06:53;878.92;;;815.83;;
16282;SDS011;8249;48.708;9.030;2023-06-22T04:09:20;856.13;;;795.80;;
16282;SDS011;8249;48.708;9.030;2023-06-22T04:11:47;813.17;;;758.15;;
16282;SDS011;8249;48.708;9.030;2023-06-22T04:14:14;802.75;;;749.70;;
16282;SDS011;8249;48.708;9.030;2023-06-22T04:16:41;771.85;;;721.17;;
16282;SDS011;8249;48.708;9.030;2023-06-22T04:19:10;837.83;;;779.03;;
16282;SDS011;8249;48.708;9.030;2023-06-22T04:21:41;649.25;;;608.00;;
16282;SDS011;8249;48.708;9.030;2023-06-22T04:24:08;637.47;;;597.50;;
16282;SDS011;8249;48.708;9.030;2023-06-22T04:26:35;608.28;;;570.42;;
16282;SDS011;8249;48.708;9.030;2023-06-22T04:29:03;621.53;;;581.93;;
16282;SDS011;8249;48.708;9.030;2023-06-22T04:31:30;642.07;;;601.97;;
16282;SDS011;8249;48.708;9.030;2023-06-22T04:34:02;625.95;;;585.03;;
16282;SDS011;8249;48.708;9.030;2023-06-22T04:36:34;689.03;;;643.28;;
16282;SDS011;8249;48.708;9.030;2023-06-22T04:39:05;697.55;;;651.95;;
16282;SDS011;8249;48.708;9.030;2023-06-22T04:41:34;670.45;;;627.10;;
16282;SDS011;8249;48.708;9.030;2023-06-22T04:44:07;605.90;;;568.80;;
16282;SDS011;8249;48.708;9.030;2023-06-22T04:46:36;666.20;;;622.65;;
16282;SDS011;8249;48.708;9.030;2023-06-22T04:49:03;689.47;;;644.55;;
16282;SDS011;8249;48.708;9.030;2023-06-22T04:51:37;734.83;;;686.33;;
16282;SDS011;8249;48.708;9.030;2023-06-22T04:54:06;837.53;;;775.38;;
16282;SDS011;8249;48.708;9.030;2023-06-22T04:56:34;870.22;;;803.83;;
16282;SDS011;8249;48.708;9.030;2023-06-22T04:59:01;952.65;;;875.80;;
16282;SDS011;8249;48.708;9.030;2023-06-22T05:01:29;1017.95;;;929.78;;
16282;SDS011;8249;48.708;9.030;2023-06-22T05:03:57;1746.93;;;975.45;;
16282;SDS011;8249;48.708;9.030;2023-06-22T05:06:26;775.67;;;713.78;;
16282;SDS011;8249;48.708;9.030;2023-06-22T05:08:55;1999.90;;;999.90;;
16282;SDS011;8249;48.708;9.030;2023-06-22T05:11:23;1999.90;;;999.90;;
16282;SDS011;8249;48.708;9.030;2023-06-22T05:13:51;1999.90;;;999.90;;
16282;SDS011;8249;48.708;9.030;2023-06-22T05:16:18;1999.90;;;999.90;;
16282;SDS011;8249;48.708;9.030;2023-06-22T05:18:49;1999.90;;;999.90;;
16282;SDS011;8249;48.708;9.030;2023-06-22T05:21:17;1999.90;;;999.90;;
16282;SDS011;8249;48.708;9.030;2023-06-22T05:23:44;1999.90;;;999.90;;
16282;SDS011;8249;48.708;9.030;2023-06-22T05:26:12;1999.90;;;999.90;;
16282;SDS011;8249;48.708;9.030;2023-06-22T05:28:39;1999.90;;;999.90;;
16282;SDS011;8249;48.708;9.030;2023-06-22T05:31:06;1999.90;;;999.90;;
16282;SDS011;8249;48.708;9.030;2023-06-22T05:33:33;1999.90;;;999.90;;
16282;SDS011;8249;48.708;9.030;2023-06-22T05:36:00;1999.90;;;999.90;;
16282;SDS011;8249;48.708;9.030;2023-06-22T05:38:26;1999.90;;;999.90;;
16282;SDS011;8249;48.708;9.030;2023-06-22T05:40:53;1999.90;;;999.90;;
16282;SDS011;8249;48.708;9.030;2023-06-22T05:43:22;1999.90;;;999.90;;
16282;SDS011;8249;48.708;9.030;2023-06-22T05:45:49;1999.90;;;999.90;;
16282;SDS011;8249;48.708;9.030;2023-06-22T05:48:16;1999.90;;;999.90;;
16282;SDS011;8249;48.708;9.030;2023-06-22T05:50:43;1999.90;;;999.90;;
16282;SDS011;8249;48.708;9.030;2023-06-22T05:53:10;1999.90;;;999.90;;
16282;SDS011;8249;48.708;9.030;2023-06-22T05:55:37;1999.90;;;999.90;;
16282;SDS011;8249;48.708;9.030;2023-06-22T05:58:04;1999.90;;;999.90;;
16282;SDS011;8249;48.708;9.030;2023-06-22T06:00:32;1999.90;;;999.90;;
16282;SDS011;8249;48.708;9.030;2023-06-22T06:02:59;1999.90;;;999.90;;
16282;SDS011;8249;48.708;9.030;2023-06-22T06:05:28;1999.90;;;999.90;;
16282;SDS011;8249;48.708;9.030;2023-06-22T06:07:55;1999.90;;;999.90;;
16282;SDS011;8249;48.708;9.030;2023-06-22T06:10:22;1999.90;;;999.90;;
16282;SDS011;8249;48.708;9.030;2023-06-22T06:12:50;1999.90;;;999.90;;
16282;SDS011;8249;48.708;9.030;2023-06-22T06:15:17;1999.90;;;999.90;;
16282;SDS011;8249;48.708;9.030;2023-06-22T06:17:46;1999.90;;;999.90;;
16282;SDS011;8249;48.708;9.030;2023-06-22T06:20:14;1999.90;;;999.90;;
16282;SDS011;8249;48.708;9.030;2023-06-22T06:22:41;1999.90;;;999.90;;
16282;SDS011;8249;48.708;9.030;2023-06-22T06:25:09;1999.90;;;999.90;;
16282;SDS011;8249;48.708;9.030;2023-06-22T06:27:41;1999.90;;;999.90;;
16282;SDS011;8249;48.708;9.030;2023-06-22T06:30:08;1999.90;;;999.90;;
16282;SDS011;8249;48.708;9.030;2023-06-22T06:32:36;1999.90;;;999.90;;
16282;SDS011;8249;48.708;9.030;2023-06-22T06:35:06;1999.90;;;999.90;;
16282;SDS011;8249;48.708;9.030;2023-06-22T06:37:35;1999.90;;;999.90;;
16282;SDS011;8249;48.708;9.030;2023-06-22T06:40:04;1999.90;;;999.90;;
16282;SDS011;8249;48.708;9.030;2023-06-22T06:42:33;1999.90;;;999.90;;
16282;SDS011;8249;48.708;9.030;2023-06-22T06:45:02;1999.90;;;999.90;;
16282;SDS011;8249;48.708;9.030;2023-06-22T06:47:30;1999.90;;;999.90;;
16282;SDS011;8249;48.708;9.030;2023-06-22T06:49:57;1999.90;;;999.90;;
16282;SDS011;8249;48.708;9.030;2023-06-22T06:52:26;1999.90;;;999.90;;
16282;SDS011;8249;48.708;9.030;2023-06-22T06:54:53;1999.90;;;999.90;;
16282;SDS011;8249;48.708;9.030;2023-06-22T06:57:20;1999.90;;;999.90;;
16282;SDS011;8249;48.708;9.030;2023-06-22T06:59:47;1999.90;;;999.90;;
16282;SDS011;8249;48.708;9.030;2023-06-22T07:02:14;1999.90;;;999.90;;
16282;SDS011;8249;48.708;9.030;2023-06-22T07:04:41;1999.90;;;999.90;;
16282;SDS011;8249;48.708;9.030;2023-06-22T07:07:08;1999.90;;;999.90;;
16282;SDS011;8249;48.708;9.030;2023-06-22T07:09:36;1999.90;;;999.90;;
16282;SDS011;8249;48.708;9.030;2023-06-22T07:12:04;1999.90;;;999.90;;
16282;SDS011;8249;48.708;9.030;2023-06-22T07:14:31;1999.90;;;999.90;;
16282;SDS011;8249;48.708;9.030;2023-06-22T07:16:58;1999.90;;;999.90;;
16282;SDS011;8249;48.708;9.030;2023-06-22T07:19:25;1999.90;;;999.90;;
16282;SDS011;8249;48.708;9.030;2023-06-22T07:21:53;1999.90;;;999.90;;
16282;SDS011;8249;48.708;9.030;2023-06-22T07:24:20;1999.90;;;999.90;;
16282;SDS011;8249;48.708;9.030;2023-06-22T07:26:48;1999.90;;;999.90;;
16282;SDS011;8249;48.708;9.030;2023-06-22T07:29:16;1999.90;;;999.90;;
16282;SDS011;8249;48.708;9.030;2023-06-22T07:31:44;1999.90;;;999.90;;
16282;SDS011;8249;48.708;9.030;2023-06-22T07:34:11;1999.90;;;999.90;;
16282;SDS011;8249;48.708;9.030;2023-06-22T07:36:38;1999.90;;;999.90;;
16282;SDS011;8249;48.708;9.030;2023-06-22T07:39:05;1999.90;;;999.90;;
16282;SDS011;8249;48.708;9.030;2023-06-22T07:41:32;1999.90;;;999.90;;
16282;SDS011;8249;48.708;9.030;2023-06-22T07:44:00;1999.90;;;999.90;;
16282;SDS011;8249;48.708;9.030;2023-06-22T07:46:28;1999.90;;;999.90;;
16282;SDS011;8249;48.708;9.030;2023-06-22T07:48:56;1999.90;;;999.90;;
16282;SDS011;8249;48.708;9.030;2023-06-22T07:51:23;1999.90;;;999.90;;
16282;SDS011;8249;48.708;9.030;2023-06-22T07:53:50;1999.90;;;999.90;;
16282;SDS011;8249;48.708;9.030;2023-06-22T07:56:17;1999.90;;;999.90;;
16282;SDS011;8249;48.708;9.030;2023-06-22T07:58:45;1999.90;;;999.90;;
16282;SDS011;8249;48.708;9.030;2023-06-22T08:01:14;1999.90;;;999.90;;
16282;SDS011;8249;48.708;9.030;2023-06-22T08:03:41;1999.90;;;999.90;;
16282;SDS011;8249;48.708;9.030;2023-06-22T08:06:08;1999.90;;;999.90;;
16282;SDS011;8249;48.708;9.030;2023-06-22T08:08:36;1999.90;;;999.90;;
16282;SDS011;8249;48.708;9.030;2023-06-22T08:11:03;1999.90;;;999.90;;
16282;SDS011;8249;48.708;9.030;2023-06-22T08:13:30;1999.90;;;999.90;;
16282;SDS011;8249;48.708;9.030;2023-06-22T08:15:57;1999.90;;;999.90;;
16282;SDS011;8249;48.708;9.030;2023-06-22T08:18:26;1999.90;;;999.90;;
16282;SDS011;8249;48.708;9.030;2023-06-22T08:20:54;1999.90;;;999.90;;
16282;SDS011;8249;48.708;9.030;2023-06-22T08:23:21;1999.90;;;999.90;;
16282;SDS011;8249;48.708;9.030;2023-06-22T08:25:48;1999.90;;;999.90;;
16282;SDS011;8249;48.708;9.030;2023-06-22T08:28:15;1999.90;;;999.90;;
16282;SDS011;8249;48.708;9.030;2023-06-22T08:30:42;1999.90;;;999.90;;
16282;SDS011;8249;48.708;9.030;2023-06-22T08:33:09;1999.90;;;999.90;;
16282;SDS011;8249;48.708;9.030;2023-06-22T08:35:37;1999.90;;;999.90;;
16282;SDS011;8249;48.708;9.030;2023-06-22T08:38:04;1999.90;;;999.90;;
16282;SDS011;8249;48.708;9.030;2023-06-22T08:40:31;1999.90;;;999.90;;
16282;SDS011;8249;48.708;9.030;2023-06-22T08:42:58;1999.90;;;999.90;;
16282;SDS011;8249;48.708;9.030;2023-06-22T08:45:25;1999.90;;;999.90;;
16282;SDS011;8249;48.708;9.030;2023-06-22T08:47:52;1999.90;;;999.90;;
16282;SDS011;8249;48.708;9.030;2023-06-22T08:50:18;1999.90;;;999.90;;
16282;SDS011;8249;48.708;9.030;2023-06-22T08:52:47;1999.90;;;999.90;;
16282;SDS011;8249;48.708;9.030;2023-06-22T08:55:14;1999.90;;;999.90;;
16282;SDS011;8249;48.708;9.030;2023-06-22T08:57:41;1999.90;;;999.90;;
16282;SDS011;8249;48.708;9.030;2023-06-22T09:00:09;1999.90;;;999.90;;
16282;SDS011;8249;48.708;9.030;2023-06-22T09:02:41;1999.90;;;999.90;;
16282;SDS011;8249;48.708;9.030;2023-06-22T09:05:09;1999.90;;;999.90;;
16282;SDS011;8249;48.708;9.030;2023-06-22T09:07:36;1999.90;;;999.90;;
16282;SDS011;8249;48.708;9.030;2023-06-22T09:10:04;1999.90;;;999.90;;
16282;SDS011;8249;48.708;9.030;2023-06-22T09:12:32;1999.90;;;999.90;;
16282;SDS011;8249;48.708;9.030;2023-06-22T09:15:02;1999.90;;;999.90;;
16282;SDS011;8249;48.708;9.030;2023-06-22T09:17:29;1999.90;;;999.90;;
16282;SDS011;8249;48.708;9.030;2023-06-22T09:19:56;1999.90;;;999.90;;
16282;SDS011;8249;48.708;9.030;2023-06-22T09:22:23;1999.90;;;999.90;;
16282;SDS011;8249;48.708;9.030;2023-06-22T09:24:54;1999.90;;;999.90;;
16282;SDS011;8249;48.708;9.030;2023-06-22T09:27:22;1999.90;;;999.90;;
16282;SDS011;8249;48.708;9.030;2023-06-22T09:29:49;1999.90;;;999.90;;
16282;SDS011;8249;48.708;9.030;2023-06-22T09:32:16;1999.90;;;999.90;;
16282;SDS011;8249;48.708;9.030;2023-06-22T09:34:43;1999.90;;;999.90;;
16282;SDS011;8249;48.708;9.030;2023-06-22T09:37:10;1999.90;;;999.90;;
16282;SDS011;8249;48.708;9.030;2023-06-22T09:39:37;1999.90;;;999.90;;
16282;SDS011;8249;48.708;9.030;2023-06-22T09:42:04;1999.90;;;999.90;;
16282;SDS011;8249;48.708;9.030;2023-06-22T09:44:33;1999.90;;;999.90;;
16282;SDS011;8249;48.708;9.030;2023-06-22T09:47:00;1999.90;;;999.90;;
16282;SDS011;8249;48.708;9.030;2023-06-22T09:49:27;1999.90;;;999.90;;
16282;SDS011;8249;48.708;9.030;2023-06-22T09:51:54;1999.90;;;999.90;;
16282;SDS011;8249;48.708;9.030;2023-06-22T09:54:21;1999.90;;;999.90;;
16282;SDS011;8249;48.708;9.030;2023-06-22T09:56:47;1999.90;;;999.90;;
16282;SDS011;8249;48.708;9.030;2023-06-22T09:59:14;1999.90;;;999.90;;
16282;SDS011;8249;48.708;9.030;2023-06-22T10:01:43;1999.90;;;999.90;;
16282;SDS011;8249;48.708;9.030;2023-06-22T10:04:09;1999.90;;;999.90;;
16282;SDS011;8249;48.708;9.030;2023-06-22T10:06:36;1999.90;;;999.90;;
16282;SDS011;8249;48.708;9.030;2023-06-22T10:09:05;1999.90;;;999.90;;
16282;SDS011;8249;48.708;9.030;2023-06-22T10:11:33;1999.90;;;999.90;;
16282;SDS011;8249;48.708;9.030;2023-06-22T10:14:00;1999.90;;;999.90;;
16282;SDS011;8249;48.708;9.030;2023-06-22T10:16:30;1999.90;;;999.90;;
16282;SDS011;8249;48.708;9.030;2023-06-22T10:18:58;1999.90;;;999.90;;
16282;SDS011;8249;48.708;9.030;2023-06-22T10:21:25;1999.90;;;999.90;;
16282;SDS011;8249;48.708;9.030;2023-06-22T10:23:53;1999.90;;;999.90;;
16282;SDS011;8249;48.708;9.030;2023-06-22T10:26:20;1999.90;;;999.90;;
16282;SDS011;8249;48.708;9.030;2023-06-22T10:28:47;1999.90;;;999.90;;
16282;SDS011;8249;48.708;9.030;2023-06-22T10:31:14;1999.90;;;999.90;;
16282;SDS011;8249;48.708;9.030;2023-06-22T10:33:41;1999.90;;;999.90;;
16282;SDS011;8249;48.708;9.030;2023-06-22T10:36:10;1999.90;;;999.90;;
16282;SDS011;8249;48.708;9.030;2023-06-22T10:38:37;1999.90;;;999.90;;
16282;SDS011;8249;48.708;9.030;2023-06-22T10:41:04;1999.90;;;999.90;;
16282;SDS011;8249;48.708;9.030;2023-06-22T10:43:31;1999.90;;;999.90;;
16282;SDS011;8249;48.708;9.030;2023-06-22T10:45:58;1999.90;;;999.90;;
16282;SDS011;8249;48.708;9.030;2023-06-22T10:48:25;1999.90;;;999.90;;
16282;SDS011;8249;48.708;9.030;2023-06-22T10:50:52;1999.90;;;999.90;;
16282;SDS011;8249;48.708;9.030;2023-06-22T10:53:21;1999.90;;;999.90;;
16282;SDS011;8249;48.708;9.030;2023-06-22T10:55:48;1999.90;;;999.90;;
16282;SDS011;8249;48.708;9.030;2023-06-22T10:58:17;1999.90;;;999.90;;
16282;SDS011;8249;48.708;9.030;2023-06-22T11:00:44;1999.90;;;999.90;;
16282;SDS011;8249;48.708;9.030;2023-06-22T11:03:11;1999.90;;;999.90;;
16282;SDS011;8249;48.708;9.030;2023-06-22T11:05:39;1999.90;;;999.90;;
16282;SDS011;8249;48.708;9.030;2023-06-22T11:08:06;1999.90;;;999.90;;
16282;SDS011;8249;48.708;9.030;2023-06-22T11:10:35;1999.90;;;999.90;;
16282;SDS011;8249;48.708;9.030;2023-06-22T11:13:02;1999.90;;;999.90;;
16282;SDS011;8249;48.708;9.030;2023-06-22T11:15:29;1999.90;;;999.90;;
16282;SDS011;8249;48.708;9.030;2023-06-22T11:17:56;1999.90;;;999.90;;
16282;SDS011;8249;48.708;9.030;2023-06-22T11:20:23;1999.90;;;999.90;;
16282;SDS011;8249;48.708;9.030;2023-06-22T11:22:50;1999.90;;;999.90;;
16282;SDS011;8249;48.708;9.030;2023-06-22T11:25:17;1999.90;;;999.90;;
16282;SDS011;8249;48.708;9.030;2023-06-22T11:27:45;1999.90;;;999.90;;
16282;SDS011;8249;48.708;9.030;2023-06-22T11:30:12;1999.90;;;999.90;;
16282;SDS011;8249;48.708;9.030;2023-06-22T11:32:39;1999.90;;;999.90;;
16282;SDS011;8249;48.708;9.030;2023-06-22T11:35:06;1999.90;;;999.90;;
16282;SDS011;8249;48.708;9.030;2023-06-22T11:37:33;1999.90;;;999.90;;
16282;SDS011;8249;48.708;9.030;2023-06-22T11:40:01;1999.90;;;999.90;;
16282;SDS011;8249;48.708;9.030;2023-06-22T11:42:30;1999.90;;;999.90;;
16282;SDS011;8249;48.708;9.030;2023-06-22T11:44:58;1999.90;;;999.90;;
16282;SDS011;8249;48.708;9.030;2023-06-22T11:47:25;1999.90;;;999.90;;
16282;SDS011;8249;48.708;9.030;2023-06-22T11:49:52;1999.90;;;999.90;;
16282;SDS011;8249;48.708;9.030;2023-06-22T11:52:20;1999.90;;;999.90;;
16282;SDS011;8249;48.708;9.030;2023-06-22T11:54:47;1999.90;;;999.90;;
16282;SDS011;8249;48.708;9.030;2023-06-22T11:57:14;1999.90;;;999.90;;
16282;SDS011;8249;48.708;9.030;2023-06-22T11:59:41;1999.90;;;999.90;;
16282;SDS011;8249;48.708;9.030;2023-06-22T12:02:09;1999.90;;;999.90;;
16282;SDS011;8249;48.708;9.030;2023-06-22T12:04:36;1999.90;;;999.90;;
16282;SDS011;8249;48.708;9.030;2023-06-22T12:07:03;1999.90;;;999.90;;
16282;SDS011;8249;48.708;9.030;2023-06-22T12:09:30;1999.90;;;999.90;;
16282;SDS011;8249;48.708;9.030;2023-06-22T12:11:58;1999.90;;;999.90;;
16282;SDS011;8249;48.708;9.030;2023-06-22T12:14:25;1999.90;;;999.90;;
16282;SDS011;8249;48.708;9.030;2023-06-22T12:16:51;1999.90;;;999.90;;
16282;SDS011;8249;48.708;9.030;2023-06-22T12:19:20;1999.90;;;999.90;;
16282;SDS011;8249;48.708;9.030;2023-06-22T12:21:47;1999.90;;;999.90;;
16282;SDS011;8249;48.708;9.030;2023-06-22T12:24:14;1999.90;;;999.90;;
16282;SDS011;8249;48.708;9.030;2023-06-22T12:26:41;1999.90;;;999.90;;
16282;SDS011;8249;48.708;9.030;2023-06-22T12:29:08;1999.90;;;999.90;;
16282;SDS011;8249;48.708;9.030;2023-06-22T12:31:35;1999.90;;;999.90;;
16282;SDS011;8249;48.708;9.030;2023-06-22T12:34:03;1999.90;;;999.90;;
16282;SDS011;8249;48.708;9.030;2023-06-22T12:36:32;1999.90;;;999.90;;
16282;SDS011;8249;48.708;9.030;2023-06-22T12:38:59;1999.90;;;999.90;;
16282;SDS011;8249;48.708;9.030;2023-06-22T12:41:25;1999.90;;;999.90;;
16282;SDS011;8249;48.708;9.030;2023-06-22T12:43:52;1999.90;;;999.90;;
16282;SDS011;8249;48.708;9.030;2023-06-22T12:46:19;1999.90;;;999.90;;
16282;SDS011;8249;48.708;9.030;2023-06-22T12:48:46;1999.90;;;999.90;;
16282;SDS011;8249;48.708;9.030;2023-06-22T12:51:19;1999.90;;;999.90;;
16282;SDS011;8249;48.708;9.030;2023-06-22T12:53:49;1999.90;;;999.90;;
16282;SDS011;8249;48.708;9.030;2023-06-22T12:56:16;1999.90;;;999.90;;
16282;SDS011;8249;48.708;9.030;2023-06-22T12:58:43;1999.90;;;999.90;;
16282;SDS011;8249;48.708;9.030;2023-06-22T13:01:09;1999.90;;;999.90;;
16282;SDS011;8249;48.708;9.030;2023-06-22T13:03:36;1999.90;;;999.90;;
16282;SDS011;8249;48.708;9.030;2023-06-22T13:06:03;1999.90;;;999.90;;
16282;SDS011;8249;48.708;9.030;2023-06-22T13:08:30;1999.90;;;999.90;;
16282;SDS011;8249;48.708;9.030;2023-06-22T13:10:59;1999.90;;;999.90;;
16282;SDS011;8249;48.708;9.030;2023-06-22T13:13:26;1999.90;;;999.90;;
16282;SDS011;8249;48.708;9.030;2023-06-22T13:15:53;1999.90;;;999.90;;
16282;SDS011;8249;48.708;9.030;2023-06-22T13:18:21;1999.90;;;999.90;;
16282;SDS011;8249;48.708;9.030;2023-06-22T13:20:48;1999.90;;;999.90;;
16282;SDS011;8249;48.708;9.030;2023-06-22T13:23:15;1999.90;;;999.90;;
16282;SDS011;8249;48.708;9.030;2023-06-22T13:25:41;1999.90;;;999.90;;
16282;SDS011;8249;48.708;9.030;2023-06-22T13:28:10;1999.90;;;999.90;;
16282;SDS011;8249;48.708;9.030;2023-06-22T13:30:38;1999.90;;;999.90;;
16282;SDS011;8249;48.708;9.030;2023-06-22T13:33:06;1999.90;;;999.90;;
16282;SDS011;8249;48.708;9.030;2023-06-22T13:35:33;1999.90;;;999.90;;
16282;SDS011;8249;48.708;9.030;2023-06-22T13:38:01;1999.90;;;999.90;;
16282;SDS011;8249;48.708;9.030;2023-06-22T13:40:27;1999.90;;;999.90;;
16282;SDS011;8249;48.708;9.030;2023-06-22T13:42:55;1999.90;;;999.90;;
16282;SDS011;8249;48.708;9.030;2023-06-22T13:45:23;1999.90;;;999.90;;
16282;SDS011;8249;48.708;9.030;2023-06-22T13:47:50;1999.90;;;999.90;;
16282;SDS011;8249;48.708;9.030;2023-06-22T13:50:17;1999.90;;;999.90;;
16282;SDS011;8249;48.708;9.030;2023-06-22T13:52:44;1999.90;;;999.90;;
16282;SDS011;8249;48.708;9.030;2023-06-22T13:55:11;1999.90;;;999.90;;
16282;SDS011;8249;48.708;9.030;2023-06-22T13:57:39;1999.90;;;999.90;;
16282;SDS011;8249;48.708;9.030;2023-06-22T14:00:07;1999.90;;;999.90;;
16282;SDS011;8249;48.708;9.030;2023-06-22T14:02:39;1999.90;;;999.90;;
16282;SDS011;8249;48.708;9.030;2023-06-22T14:05:06;1999.90;;;999.90;;